sensor_id;sensor_type;location;lat;lon;timestamp;temperature;humidity
26503;DHT22;14177;51.520;6.764;2023-12-20T00:00:31;7.80;99.90
26503;DHT22;14177;51.520;6.764;2023-12-20T00:02:58;7.80;99.90
26503;DHT22;14177;51.520;6.764;2023-12-20T00:05:25;7.80;99.90
26503;DHT22;14177;51.520;6.764;2023-12-20T00:07:53;7.70;99.90
26503;DHT22;14177;51.520;6.764;2023-12-20T00:10:21;7.70;99.90
26503;DHT22;14177;51.520;6.764;2023-12-20T00:12:48;7.60;99.90
26503;DHT22;14177;51.520;6.764;2023-12-20T00:15:15;7.60;99.90
26503;DHT22;14177;51.520;6.764;2023-12-20T00:17:42;7.50;99.90
26503;DHT22;14177;51.520;6.764;2023-12-20T00:20:09;7.50;99.90
26503;DHT22;14177;51.520;6.764;2023-12-20T00:22:37;7.50;99.90
26503;DHT22;14177;51.520;6.764;2023-12-20T00:25:04;7.40;99.90
26503;DHT22;14177;51.520;6.764;2023-12-20T00:27:31;7.40;99.90
26503;DHT22;14177;51.520;6.764;2023-12-20T00:29:58;7.40;99.90
26503;DHT22;14177;51.520;6.764;2023-12-20T00:32:25;7.30;99.90
26503;DHT22;14177;51.520;6.764;2023-12-20T00:34:52;7.30;99.90
26503;DHT22;14177;51.520;6.764;2023-12-20T00:37:19;7.30;99.90
26503;DHT22;14177;51.520;6.764;2023-12-20T00:39:46;7.30;99.90
26503;DHT22;14177;51.520;6.764;2023-12-20T00:42:13;7.30;99.90
26503;DHT22;14177;51.520;6.764;2023-12-20T00:44:40;7.30;99.90
26503;DHT22;14177;51.520;6.764;2023-12-20T00:47:07;7.30;99.90
26503;DHT22;14177;51.520;6.764;2023-12-20T00:49:34;7.30;99.90
26503;DHT22;14177;51.520;6.764;2023-12-20T00:52:01;7.30;99.90
26503;DHT22;14177;51.520;6.764;2023-12-20T00:54:28;7.30;99.90
26503;DHT22;14177;51.520;6.764;2023-12-20T00:56:57;7.30;99.90
26503;DHT22;14177;51.520;6.764;2023-12-20T00:59:24;7.20;99.90
26503;DHT22;14177;51.520;6.764;2023-12-20T01:01:51;7.20;99.90
26503;DHT22;14177;51.520;6.764;2023-12-20T01:04:18;7.20;99.90
26503;DHT22;14177;51.520;6.764;2023-12-20T01:06:45;7.20;99.90
26503;DHT22;14177;51.520;6.764;2023-12-20T01:09:12;7.20;99.90
26503;DHT22;14177;51.520;6.764;2023-12-20T01:11:39;7.20;99.90
26503;DHT22;14177;51.520;6.764;2023-12-20T01:14:06;7.20;99.90
26503;DHT22;14177;51.520;6.764;2023-12-20T01:16:33;7.10;99.90
26503;DHT22;14177;51.520;6.764;2023-12-20T01:19:00;7.10;99.90
26503;DHT22;14177;51.520;6.764;2023-12-20T01:21:27;7.10;99.90
26503;DHT22;14177;51.520;6.764;2023-12-20T01:23:54;7.10;99.90
26503;DHT22;14177;51.520;6.764;2023-12-20T01:26:21;7.10;99.90
26503;DHT22;14177;51.520;6.764;2023-12-20T01:28:48;7.10;99.90
26503;DHT22;14177;51.520;6.764;2023-12-20T01:31:15;7.10;99.90
26503;DHT22;14177;51.520;6.764;2023-12-20T01:33:42;7.00;99.90
26503;DHT22;14177;51.520;6.764;2023-12-20T01:36:09;7.00;99.90
26503;DHT22;14177;51.520;6.764;2023-12-20T01:38:36;7.00;99.90
26503;DHT22;14177;51.520;6.764;2023-12-20T01:41:03;7.00;99.90
26503;DHT22;14177;51.520;6.764;2023-12-20T01:43:30;7.00;99.90
26503;DHT22;14177;51.520;6.764;2023-12-20T01:46:07;6.90;99.90
26503;DHT22;14177;51.520;6.764;2023-12-20T01:48:34;6.90;99.90
26503;DHT22;14177;51.520;6.764;2023-12-20T01:51:02;6.80;99.90
26503;DHT22;14177;51.520;6.764;2023-12-20T01:53:30;6.80;99.90
26503;DHT22;14177;51.520;6.764;2023-12-20T01:56:00;6.80;99.90
26503;DHT22;14177;51.520;6.764;2023-12-20T01:58:28;6.70;99.90
26503;DHT22;14177;51.520;6.764;2023-12-20T02:00:56;6.70;99.90
26503;DHT22;14177;51.520;6.764;2023-12-20T02:03:24;6.70;99.90
26503;DHT22;14177;51.520;6.764;2023-12-20T02:05:52;6.70;99.90
26503;DHT22;14177;51.520;6.764;2023-12-20T02:08:19;6.70;99.90
26503;DHT22;14177;51.520;6.764;2023-12-20T02:10:47;6.70;99.90
26503;DHT22;14177;51.520;6.764;2023-12-20T02:13:14;6.70;99.90
26503;DHT22;14177;51.520;6.764;2023-12-20T02:15:41;6.70;99.90
26503;DHT22;14177;51.520;6.764;2023-12-20T02:18:10;6.70;99.90
26503;DHT22;14177;51.520;6.764;2023-12-20T02:20:41;6.70;99.90
26503;DHT22;14177;51.520;6.764;2023-12-20T02:23:08;6.60;99.90
26503;DHT22;14177;51.520;6.764;2023-12-20T02:25:35;6.60;99.90
26503;DHT22;14177;51.520;6.764;2023-12-20T02:28:02;6.60;99.90
26503;DHT22;14177;51.520;6.764;2023-12-20T02:30:29;6.60;99.90
26503;DHT22;14177;51.520;6.764;2023-12-20T02:32:56;6.50;99.90
26503;DHT22;14177;51.520;6.764;2023-12-20T02:35:24;6.50;99.90
26503;DHT22;14177;51.520;6.764;2023-12-20T02:37:51;6.40;99.90
26503;DHT22;14177;51.520;6.764;2023-12-20T02:40:18;6.40;99.90
26503;DHT22;14177;51.520;6.764;2023-12-20T02:42:45;6.40;99.90
26503;DHT22;14177;51.520;6.764;2023-12-20T02:45:12;6.40;99.90
26503;DHT22;14177;51.520;6.764;2023-12-20T02:47:39;6.30;99.90
26503;DHT22;14177;51.520;6.764;2023-12-20T02:50:06;6.30;99.90
26503;DHT22;14177;51.520;6.764;2023-12-20T02:52:34;6.30;99.90
26503;DHT22;14177;51.520;6.764;2023-12-20T02:55:01;6.30;99.90
26503;DHT22;14177;51.520;6.764;2023-12-20T02:57:27;6.20;99.90
26503;DHT22;14177;51.520;6.764;2023-12-20T02:59:54;6.20;99.90
26503;DHT22;14177;51.520;6.764;2023-12-20T03:02:21;6.20;99.90
26503;DHT22;14177;51.520;6.764;2023-12-20T03:04:48;6.20;99.90
26503;DHT22;14177;51.520;6.764;2023-12-20T03:07:15;6.20;99.90
26503;DHT22;14177;51.520;6.764;2023-12-20T03:09:42;6.20;99.90
26503;DHT22;14177;51.520;6.764;2023-12-20T03:12:29;6.20;99.90
26503;DHT22;14177;51.520;6.764;2023-12-20T03:14:56;6.20;99.90
26503;DHT22;14177;51.520;6.764;2023-12-20T03:17:23;6.20;99.90
26503;DHT22;14177;51.520;6.764;2023-12-20T03:19:50;6.20;99.90
26503;DHT22;14177;51.520;6.764;2023-12-20T03:22:17;6.10;99.90
26503;DHT22;14177;51.520;6.764;2023-12-20T03:24:44;6.10;99.90
26503;DHT22;14177;51.520;6.764;2023-12-20T03:27:11;6.10;99.90
26503;DHT22;14177;51.520;6.764;2023-12-20T03:29:38;6.10;99.90
26503;DHT22;14177;51.520;6.764;2023-12-20T03:32:05;6.00;99.90
26503;DHT22;14177;51.520;6.764;2023-12-20T03:34:32;6.00;99.90
26503;DHT22;14177;51.520;6.764;2023-12-20T03:36:59;6.00;99.90
26503;DHT22;14177;51.520;6.764;2023-12-20T03:39:26;6.00;99.90
26503;DHT22;14177;51.520;6.764;2023-12-20T03:41:53;6.00;99.90
26503;DHT22;14177;51.520;6.764;2023-12-20T03:44:20;6.00;99.90
26503;DHT22;14177;51.520;6.764;2023-12-20T03:46:47;6.00;99.90
26503;DHT22;14177;51.520;6.764;2023-12-20T03:49:15;5.90;99.90
26503;DHT22;14177;51.520;6.764;2023-12-20T03:51:43;5.90;99.90
26503;DHT22;14177;51.520;6.764;2023-12-20T03:54:10;5.90;99.90
26503;DHT22;14177;51.520;6.764;2023-12-20T03:56:36;5.90;99.90
26503;DHT22;14177;51.520;6.764;2023-12-20T03:59:03;5.90;99.90
26503;DHT22;14177;51.520;6.764;2023-12-20T04:01:30;5.90;99.90
26503;DHT22;14177;51.520;6.764;2023-12-20T04:03:57;5.90;99.90
26503;DHT22;14177;51.520;6.764;2023-12-20T04:06:24;5.90;99.90
26503;DHT22;14177;51.520;6.764;2023-12-20T04:08:52;5.90;99.90
26503;DHT22;14177;51.520;6.764;2023-12-20T04:11:19;5.90;99.90
26503;DHT22;14177;51.520;6.764;2023-12-20T04:13:45;5.90;99.90
26503;DHT22;14177;51.520;6.764;2023-12-20T04:16:12;5.90;99.90
26503;DHT22;14177;51.520;6.764;2023-12-20T04:18:39;5.90;99.90
26503;DHT22;14177;51.520;6.764;2023-12-20T04:21:06;5.90;99.90
26503;DHT22;14177;51.520;6.764;2023-12-20T04:23:34;5.90;99.90
26503;DHT22;14177;51.520;6.764;2023-12-20T04:26:00;5.90;99.90
26503;DHT22;14177;51.520;6.764;2023-12-20T04:28:27;5.90;99.90
26503;DHT22;14177;51.520;6.764;2023-12-20T04:30:56;6.00;99.90
26503;DHT22;14177;51.520;6.764;2023-12-20T04:33:24;6.00;99.90
26503;DHT22;14177;51.520;6.764;2023-12-20T04:35:51;6.00;99.90
26503;DHT22;14177;51.520;6.764;2023-12-20T04:38:18;5.90;99.90
26503;DHT22;14177;51.520;6.764;2023-12-20T04:40:45;6.00;99.90
26503;DHT22;14177;51.520;6.764;2023-12-20T04:43:12;6.00;99.90
26503;DHT22;14177;51.520;6.764;2023-12-20T04:45:39;6.00;99.90
26503;DHT22;14177;51.520;6.764;2023-12-20T04:48:06;6.00;99.90
26503;DHT22;14177;51.520;6.764;2023-12-20T04:50:33;6.00;99.90
26503;DHT22;14177;51.520;6.764;2023-12-20T04:53:00;6.00;99.90
26503;DHT22;14177;51.520;6.764;2023-12-20T04:55:27;6.00;99.90
26503;DHT22;14177;51.520;6.764;2023-12-20T04:57:55;5.90;99.90
26503;DHT22;14177;51.520;6.764;2023-12-20T05:00:23;6.00;99.90
26503;DHT22;14177;51.520;6.764;2023-12-20T05:02:50;5.90;99.90
26503;DHT22;14177;51.520;6.764;2023-12-20T05:05:23;5.90;99.90
26503;DHT22;14177;51.520;6.764;2023-12-20T05:07:59;5.90;99.90
26503;DHT22;14177;51.520;6.764;2023-12-20T05:10:34;5.90;99.90
26503;DHT22;14177;51.520;6.764;2023-12-20T05:13:16;5.90;99.90
26503;DHT22;14177;51.520;6.764;2023-12-20T05:16:12;5.90;99.90
26503;DHT22;14177;51.520;6.764;2023-12-20T05:18:49;5.90;99.90
26503;DHT22;14177;51.520;6.764;2023-12-20T05:21:25;5.90;99.90
26503;DHT22;14177;51.520;6.764;2023-12-20T05:23:57;5.90;99.90
26503;DHT22;14177;51.520;6.764;2023-12-20T05:26:35;5.90;99.90
26503;DHT22;14177;51.520;6.764;2023-12-20T05:29:08;5.90;99.90
26503;DHT22;14177;51.520;6.764;2023-12-20T05:31:57;5.90;99.90
26503;DHT22;14177;51.520;6.764;2023-12-20T05:34:34;5.90;99.90
26503;DHT22;14177;51.520;6.764;2023-12-20T05:37:15;6.00;99.90
26503;DHT22;14177;51.520;6.764;2023-12-20T05:39:57;5.90;99.90
26503;DHT22;14177;51.520;6.764;2023-12-20T05:42:47;5.90;99.90
26503;DHT22;14177;51.520;6.764;2023-12-20T05:45:38;6.00;99.90
26503;DHT22;14177;51.520;6.764;2023-12-20T05:48:31;6.00;99.90
26503;DHT22;14177;51.520;6.764;2023-12-20T05:51:06;6.00;99.90
26503;DHT22;14177;51.520;6.764;2023-12-20T05:53:43;6.00;99.90
26503;DHT22;14177;51.520;6.764;2023-12-20T05:56:14;6.10;99.90
26503;DHT22;14177;51.520;6.764;2023-12-20T05:58:41;6.10;99.90
26503;DHT22;14177;51.520;6.764;2023-12-20T06:01:08;6.10;99.90
26503;DHT22;14177;51.520;6.764;2023-12-20T06:03:35;6.10;99.90
26503;DHT22;14177;51.520;6.764;2023-12-20T06:06:06;6.10;99.90
26503;DHT22;14177;51.520;6.764;2023-12-20T06:08:42;6.20;99.90
26503;DHT22;14177;51.520;6.764;2023-12-20T06:11:10;6.20;99.90
26503;DHT22;14177;51.520;6.764;2023-12-20T06:13:38;6.20;99.90
26503;DHT22;14177;51.520;6.764;2023-12-20T06:16:06;6.20;99.90
26503;DHT22;14177;51.520;6.764;2023-12-20T06:18:36;6.20;99.90
26503;DHT22;14177;51.520;6.764;2023-12-20T06:21:04;6.30;99.90
26503;DHT22;14177;51.520;6.764;2023-12-20T06:23:31;6.30;99.90
26503;DHT22;14177;51.520;6.764;2023-12-20T06:25:58;6.30;99.90
26503;DHT22;14177;51.520;6.764;2023-12-20T06:28:25;6.30;99.90
26503;DHT22;14177;51.520;6.764;2023-12-20T06:30:52;6.30;99.90
26503;DHT22;14177;51.520;6.764;2023-12-20T06:33:21;6.40;99.90
26503;DHT22;14177;51.520;6.764;2023-12-20T06:35:49;6.40;99.90
26503;DHT22;14177;51.520;6.764;2023-12-20T06:38:18;6.40;99.90
26503;DHT22;14177;51.520;6.764;2023-12-20T06:40:46;6.40;99.90
26503;DHT22;14177;51.520;6.764;2023-12-20T06:43:13;6.40;99.90
26503;DHT22;14177;51.520;6.764;2023-12-20T06:45:58;6.40;99.90
26503;DHT22;14177;51.520;6.764;2023-12-20T06:48:27;6.40;99.90
26503;DHT22;14177;51.520;6.764;2023-12-20T06:50:54;6.40;99.90
26503;DHT22;14177;51.520;6.764;2023-12-20T06:53:21;6.40;99.90
26503;DHT22;14177;51.520;6.764;2023-12-20T06:55:48;6.40;99.90
26503;DHT22;14177;51.520;6.764;2023-12-20T06:58:15;6.40;99.90
26503;DHT22;14177;51.520;6.764;2023-12-20T07:00:43;6.50;99.90
26503;DHT22;14177;51.520;6.764;2023-12-20T07:03:11;6.50;99.90
26503;DHT22;14177;51.520;6.764;2023-12-20T07:05:38;6.50;99.90
26503;DHT22;14177;51.520;6.764;2023-12-20T07:08:06;6.50;99.90
26503;DHT22;14177;51.520;6.764;2023-12-20T07:10:33;6.50;99.90
26503;DHT22;14177;51.520;6.764;2023-12-20T07:13:00;6.60;99.90
26503;DHT22;14177;51.520;6.764;2023-12-20T07:15:27;6.60;99.90
26503;DHT22;14177;51.520;6.764;2023-12-20T07:17:56;6.60;99.90
26503;DHT22;14177;51.520;6.764;2023-12-20T07:20:23;6.60;99.90
26503;DHT22;14177;51.520;6.764;2023-12-20T07:22:50;6.70;99.90
26503;DHT22;14177;51.520;6.764;2023-12-20T07:25:17;6.60;99.90
26503;DHT22;14177;51.520;6.764;2023-12-20T07:27:44;6.70;99.90
26503;DHT22;14177;51.520;6.764;2023-12-20T07:30:12;6.70;99.90
26503;DHT22;14177;51.520;6.764;2023-12-20T07:32:39;6.70;99.90
26503;DHT22;14177;51.520;6.764;2023-12-20T07:35:07;6.70;99.90
26503;DHT22;14177;51.520;6.764;2023-12-20T07:37:34;6.70;99.90
26503;DHT22;14177;51.520;6.764;2023-12-20T07:40:01;6.70;99.90
26503;DHT22;14177;51.520;6.764;2023-12-20T07:42:30;6.70;99.90
26503;DHT22;14177;51.520;6.764;2023-12-20T07:44:57;6.70;99.90
26503;DHT22;14177;51.520;6.764;2023-12-20T07:47:24;6.70;99.90
26503;DHT22;14177;51.520;6.764;2023-12-20T07:49:52;6.70;99.90
26503;DHT22;14177;51.520;6.764;2023-12-20T07:52:19;6.70;99.90
26503;DHT22;14177;51.520;6.764;2023-12-20T07:54:49;6.70;99.90
26503;DHT22;14177;51.520;6.764;2023-12-20T07:57:16;6.80;99.90
26503;DHT22;14177;51.520;6.764;2023-12-20T07:59:43;6.80;99.90
26503;DHT22;14177;51.520;6.764;2023-12-20T08:02:11;6.80;99.90
26503;DHT22;14177;51.520;6.764;2023-12-20T08:04:38;6.80;99.90
26503;DHT22;14177;51.520;6.764;2023-12-20T08:07:05;6.90;99.90
26503;DHT22;14177;51.520;6.764;2023-12-20T08:09:32;6.90;99.90
26503;DHT22;14177;51.520;6.764;2023-12-20T08:12:00;6.80;99.90
26503;DHT22;14177;51.520;6.764;2023-12-20T08:14:27;6.90;99.90
26503;DHT22;14177;51.520;6.764;2023-12-20T08:16:54;6.90;99.90
26503;DHT22;14177;51.520;6.764;2023-12-20T08:19:21;6.90;99.90
26503;DHT22;14177;51.520;6.764;2023-12-20T08:21:49;6.90;99.90
26503;DHT22;14177;51.520;6.764;2023-12-20T08:24:15;6.90;99.90
26503;DHT22;14177;51.520;6.764;2023-12-20T08:26:42;6.90;99.90
26503;DHT22;14177;51.520;6.764;2023-12-20T08:29:09;6.90;99.90
26503;DHT22;14177;51.520;6.764;2023-12-20T08:31:39;6.90;99.90
26503;DHT22;14177;51.520;6.764;2023-12-20T08:34:06;7.00;99.90
26503;DHT22;14177;51.520;6.764;2023-12-20T08:36:35;7.00;99.90
26503;DHT22;14177;51.520;6.764;2023-12-20T08:39:02;7.00;99.90
26503;DHT22;14177;51.520;6.764;2023-12-20T08:41:30;7.00;99.90
26503;DHT22;14177;51.520;6.764;2023-12-20T08:43:57;7.00;99.90
26503;DHT22;14177;51.520;6.764;2023-12-20T08:46:24;7.00;99.90
26503;DHT22;14177;51.520;6.764;2023-12-20T08:48:51;7.00;99.90
26503;DHT22;14177;51.520;6.764;2023-12-20T08:51:18;7.00;99.90
26503;DHT22;14177;51.520;6.764;2023-12-20T08:53:46;7.00;99.90
26503;DHT22;14177;51.520;6.764;2023-12-20T08:56:14;7.00;99.90
26503;DHT22;14177;51.520;6.764;2023-12-20T08:58:42;7.00;99.90
26503;DHT22;14177;51.520;6.764;2023-12-20T09:01:09;7.00;99.90
26503;DHT22;14177;51.520;6.764;2023-12-20T09:03:36;7.00;99.90
26503;DHT22;14177;51.520;6.764;2023-12-20T09:06:04;7.00;99.90
26503;DHT22;14177;51.520;6.764;2023-12-20T09:08:32;7.00;99.90
26503;DHT22;14177;51.520;6.764;2023-12-20T09:11:00;7.00;99.90
26503;DHT22;14177;51.520;6.764;2023-12-20T09:13:27;7.00;99.90
26503;DHT22;14177;51.520;6.764;2023-12-20T09:15:56;7.00;99.90
26503;DHT22;14177;51.520;6.764;2023-12-20T09:18:24;7.00;99.90
26503;DHT22;14177;51.520;6.764;2023-12-20T09:20:51;7.00;99.90
26503;DHT22;14177;51.520;6.764;2023-12-20T09:23:18;7.00;99.90
26503;DHT22;14177;51.520;6.764;2023-12-20T09:25:45;7.00;99.90
26503;DHT22;14177;51.520;6.764;2023-12-20T09:28:12;7.00;99.90
26503;DHT22;14177;51.520;6.764;2023-12-20T09:30:39;7.00;99.90
26503;DHT22;14177;51.520;6.764;2023-12-20T09:33:07;7.00;99.90
26503;DHT22;14177;51.520;6.764;2023-12-20T09:35:35;7.00;99.90
26503;DHT22;14177;51.520;6.764;2023-12-20T09:38:02;7.00;99.90
26503;DHT22;14177;51.520;6.764;2023-12-20T09:40:32;7.00;99.90
26503;DHT22;14177;51.520;6.764;2023-12-20T09:43:06;7.00;99.90
26503;DHT22;14177;51.520;6.764;2023-12-20T09:45:47;7.00;99.90
26503;DHT22;14177;51.520;6.764;2023-12-20T09:48:20;7.10;99.90
26503;DHT22;14177;51.520;6.764;2023-12-20T09:50:53;7.00;99.90
26503;DHT22;14177;51.520;6.764;2023-12-20T09:53:27;7.10;99.90
26503;DHT22;14177;51.520;6.764;2023-12-20T09:55:58;7.10;99.90
26503;DHT22;14177;51.520;6.764;2023-12-20T09:58:40;7.10;99.90
26503;DHT22;14177;51.520;6.764;2023-12-20T10:01:13;7.20;99.90
26503;DHT22;14177;51.520;6.764;2023-12-20T10:03:51;7.20;99.90
26503;DHT22;14177;51.520;6.764;2023-12-20T10:06:42;7.20;99.90
26503;DHT22;14177;51.520;6.764;2023-12-20T10:09:12;7.20;99.90
26503;DHT22;14177;51.520;6.764;2023-12-20T10:11:44;7.20;99.90
26503;DHT22;14177;51.520;6.764;2023-12-20T10:18:19;7.30;99.90
26503;DHT22;14177;51.520;6.764;2023-12-20T10:21:13;7.40;99.90
26503;DHT22;14177;51.520;6.764;2023-12-20T10:24:04;7.40;99.90
26503;DHT22;14177;51.520;6.764;2023-12-20T10:26:48;7.40;99.90
26503;DHT22;14177;51.520;6.764;2023-12-20T10:29:41;7.40;99.90
26503;DHT22;14177;51.520;6.764;2023-12-20T10:32:28;7.50;99.90
26503;DHT22;14177;51.520;6.764;2023-12-20T10:35:28;7.40;99.90
26503;DHT22;14177;51.520;6.764;2023-12-20T10:38:22;7.50;99.90
26503;DHT22;14177;51.520;6.764;2023-12-20T10:41:29;7.50;99.90
26503;DHT22;14177;51.520;6.764;2023-12-20T10:44:28;7.50;99.90
26503;DHT22;14177;51.520;6.764;2023-12-20T10:47:13;7.50;99.90
26503;DHT22;14177;51.520;6.764;2023-12-20T10:49:46;7.50;99.90
26503;DHT22;14177;51.520;6.764;2023-12-20T10:52:28;7.50;99.90
26503;DHT22;14177;51.520;6.764;2023-12-20T10:55:26;7.50;99.90
26503;DHT22;14177;51.520;6.764;2023-12-20T10:58:10;7.60;99.90
26503;DHT22;14177;51.520;6.764;2023-12-20T11:01:05;7.60;99.90
26503;DHT22;14177;51.520;6.764;2023-12-20T11:03:54;7.60;99.90
26503;DHT22;14177;51.520;6.764;2023-12-20T11:06:50;7.60;99.90
26503;DHT22;14177;51.520;6.764;2023-12-20T11:09:36;7.60;99.90
26503;DHT22;14177;51.520;6.764;2023-12-20T11:12:54;7.60;99.90
26503;DHT22;14177;51.520;6.764;2023-12-20T11:15:44;7.60;99.90
26503;DHT22;14177;51.520;6.764;2023-12-20T11:18:31;7.50;99.90
26503;DHT22;14177;51.520;6.764;2023-12-20T11:21:11;7.60;99.90
26503;DHT22;14177;51.520;6.764;2023-12-20T11:23:51;7.50;99.90
26503;DHT22;14177;51.520;6.764;2023-12-20T11:26:29;7.50;99.90
26503;DHT22;14177;51.520;6.764;2023-12-20T11:29:36;7.50;99.90
26503;DHT22;14177;51.520;6.764;2023-12-20T11:32:28;7.50;99.90
26503;DHT22;14177;51.520;6.764;2023-12-20T11:38:17;7.60;99.90
26503;DHT22;14177;51.520;6.764;2023-12-20T11:41:00;7.60;99.90
26503;DHT22;14177;51.520;6.764;2023-12-20T11:43:53;7.60;99.90
26503;DHT22;14177;51.520;6.764;2023-12-20T11:46:26;7.60;99.90
26503;DHT22;14177;51.520;6.764;2023-12-20T11:49:01;7.50;99.90
26503;DHT22;14177;51.520;6.764;2023-12-20T11:51:35;7.50;99.90
26503;DHT22;14177;51.520;6.764;2023-12-20T11:54:16;7.50;99.90
26503;DHT22;14177;51.520;6.764;2023-12-20T11:56:49;7.50;99.90
26503;DHT22;14177;51.520;6.764;2023-12-20T11:59:22;7.50;99.90
26503;DHT22;14177;51.520;6.764;2023-12-20T12:02:18;7.50;99.90
26503;DHT22;14177;51.520;6.764;2023-12-20T12:05:09;7.50;99.90
26503;DHT22;14177;51.520;6.764;2023-12-20T12:07:56;7.60;99.90
26503;DHT22;14177;51.520;6.764;2023-12-20T12:10:57;7.60;99.90
26503;DHT22;14177;51.520;6.764;2023-12-20T12:13:31;7.60;99.90
26503;DHT22;14177;51.520;6.764;2023-12-20T12:16:25;7.70;99.90
26503;DHT22;14177;51.520;6.764;2023-12-20T12:18:59;7.70;99.90
26503;DHT22;14177;51.520;6.764;2023-12-20T12:21:29;7.80;99.90
26503;DHT22;14177;51.520;6.764;2023-12-20T12:24:08;7.80;99.90
26503;DHT22;14177;51.520;6.764;2023-12-20T12:26:52;7.80;99.90
26503;DHT22;14177;51.520;6.764;2023-12-20T12:30:24;7.80;99.90
26503;DHT22;14177;51.520;6.764;2023-12-20T12:33:29;7.90;99.90
26503;DHT22;14177;51.520;6.764;2023-12-20T12:36:11;7.90;99.90
26503;DHT22;14177;51.520;6.764;2023-12-20T12:39:02;8.00;99.90
26503;DHT22;14177;51.520;6.764;2023-12-20T12:41:40;8.00;99.90
26503;DHT22;14177;51.520;6.764;2023-12-20T12:44:11;8.00;99.90
26503;DHT22;14177;51.520;6.764;2023-12-20T12:46:51;8.00;99.90
26503;DHT22;14177;51.520;6.764;2023-12-20T12:49:32;8.00;99.90
26503;DHT22;14177;51.520;6.764;2023-12-20T12:52:02;8.00;99.90
26503;DHT22;14177;51.520;6.764;2023-12-20T12:54:40;8.00;99.90
26503;DHT22;14177;51.520;6.764;2023-12-20T12:57:25;8.00;99.90
26503;DHT22;14177;51.520;6.764;2023-12-20T13:00:08;8.00;99.90
26503;DHT22;14177;51.520;6.764;2023-12-20T13:02:43;7.90;99.90
26503;DHT22;14177;51.520;6.764;2023-12-20T13:05:31;7.90;99.90
26503;DHT22;14177;51.520;6.764;2023-12-20T13:08:26;7.90;99.90
26503;DHT22;14177;51.520;6.764;2023-12-20T13:11:01;7.90;99.90
26503;DHT22;14177;51.520;6.764;2023-12-20T13:13:52;7.90;99.90
26503;DHT22;14177;51.520;6.764;2023-12-20T13:17:16;7.90;99.90
26503;DHT22;14177;51.520;6.764;2023-12-20T13:23:14;7.90;99.90
26503;DHT22;14177;51.520;6.764;2023-12-20T13:26:06;7.80;99.90
26503;DHT22;14177;51.520;6.764;2023-12-20T13:28:51;7.80;99.90
26503;DHT22;14177;51.520;6.764;2023-12-20T13:31:30;7.80;99.90
26503;DHT22;14177;51.520;6.764;2023-12-20T13:34:09;7.80;99.90
26503;DHT22;14177;51.520;6.764;2023-12-20T13:36:38;7.70;99.90
26503;DHT22;14177;51.520;6.764;2023-12-20T13:39:29;7.70;99.90
26503;DHT22;14177;51.520;6.764;2023-12-20T13:41:59;7.70;99.90
26503;DHT22;14177;51.520;6.764;2023-12-20T13:44:35;7.70;99.90
26503;DHT22;14177;51.520;6.764;2023-12-20T13:47:11;7.60;99.90
26503;DHT22;14177;51.520;6.764;2023-12-20T13:49:51;7.70;99.90
26503;DHT22;14177;51.520;6.764;2023-12-20T13:52:41;7.70;99.90
26503;DHT22;14177;51.520;6.764;2023-12-20T13:55:26;7.60;99.90
26503;DHT22;14177;51.520;6.764;2023-12-20T13:58:03;7.60;99.90
26503;DHT22;14177;51.520;6.764;2023-12-20T14:00:53;7.70;99.90
26503;DHT22;14177;51.520;6.764;2023-12-20T14:03:43;7.70;99.90
26503;DHT22;14177;51.520;6.764;2023-12-20T14:06:31;7.70;99.90
26503;DHT22;14177;51.520;6.764;2023-12-20T14:09:15;7.70;99.90
26503;DHT22;14177;51.520;6.764;2023-12-20T14:11:46;7.70;99.90
26503;DHT22;14177;51.520;6.764;2023-12-20T14:14:14;7.60;99.90
26503;DHT22;14177;51.520;6.764;2023-12-20T14:16:42;7.60;99.90
26503;DHT22;14177;51.520;6.764;2023-12-20T14:19:12;7.60;99.90
26503;DHT22;14177;51.520;6.764;2023-12-20T14:21:39;7.60;99.90
26503;DHT22;14177;51.520;6.764;2023-12-20T14:24:06;7.50;99.90
26503;DHT22;14177;51.520;6.764;2023-12-20T14:26:33;7.50;99.90
26503;DHT22;14177;51.520;6.764;2023-12-20T14:29:01;7.50;99.90
26503;DHT22;14177;51.520;6.764;2023-12-20T14:31:28;7.50;99.90
26503;DHT22;14177;51.520;6.764;2023-12-20T14:33:55;7.50;99.90
26503;DHT22;14177;51.520;6.764;2023-12-20T14:36:23;7.60;99.90
26503;DHT22;14177;51.520;6.764;2023-12-20T14:38:50;7.50;99.90
26503;DHT22;14177;51.520;6.764;2023-12-20T14:41:17;7.50;99.90
26503;DHT22;14177;51.520;6.764;2023-12-20T14:43:45;7.50;99.90
26503;DHT22;14177;51.520;6.764;2023-12-20T14:46:13;7.50;99.90
26503;DHT22;14177;51.520;6.764;2023-12-20T14:48:42;7.50;99.90
26503;DHT22;14177;51.520;6.764;2023-12-20T14:51:09;7.50;99.90
26503;DHT22;14177;51.520;6.764;2023-12-20T14:53:37;7.50;99.90
26503;DHT22;14177;51.520;6.764;2023-12-20T14:56:05;7.50;99.90
26503;DHT22;14177;51.520;6.764;2023-12-20T14:58:32;7.60;99.90
26503;DHT22;14177;51.520;6.764;2023-12-20T15:01:00;7.60;99.90
26503;DHT22;14177;51.520;6.764;2023-12-20T15:03:28;7.60;99.90
26503;DHT22;14177;51.520;6.764;2023-12-20T15:05:55;7.60;99.90
26503;DHT22;14177;51.520;6.764;2023-12-20T15:08:25;7.60;99.90
26503;DHT22;14177;51.520;6.764;2023-12-20T15:10:53;7.60;99.90
26503;DHT22;14177;51.520;6.764;2023-12-20T15:13:19;7.60;99.90
26503;DHT22;14177;51.520;6.764;2023-12-20T15:15:46;7.70;99.90
26503;DHT22;14177;51.520;6.764;2023-12-20T15:18:14;7.70;99.90
26503;DHT22;14177;51.520;6.764;2023-12-20T15:20:41;7.70;99.90
26503;DHT22;14177;51.520;6.764;2023-12-20T15:23:10;7.70;99.90
26503;DHT22;14177;51.520;6.764;2023-12-20T15:25:40;7.70;99.90
26503;DHT22;14177;51.520;6.764;2023-12-20T15:28:07;7.80;99.90
26503;DHT22;14177;51.520;6.764;2023-12-20T15:30:34;7.80;99.90
26503;DHT22;14177;51.520;6.764;2023-12-20T15:33:03;7.80;99.90
26503;DHT22;14177;51.520;6.764;2023-12-20T15:35:33;7.80;99.90
26503;DHT22;14177;51.520;6.764;2023-12-20T15:38:03;7.80;99.90
26503;DHT22;14177;51.520;6.764;2023-12-20T15:40:31;7.80;99.90
26503;DHT22;14177;51.520;6.764;2023-12-20T15:42:59;7.80;99.90
26503;DHT22;14177;51.520;6.764;2023-12-20T15:45:26;7.80;99.90
26503;DHT22;14177;51.520;6.764;2023-12-20T15:47:53;7.80;99.90
26503;DHT22;14177;51.520;6.764;2023-12-20T15:50:20;7.80;99.90
26503;DHT22;14177;51.520;6.764;2023-12-20T15:52:48;7.80;99.90
26503;DHT22;14177;51.520;6.764;2023-12-20T15:55:15;7.80;99.90
26503;DHT22;14177;51.520;6.764;2023-12-20T15:57:42;7.80;99.90
26503;DHT22;14177;51.520;6.764;2023-12-20T16:00:20;7.80;99.90
26503;DHT22;14177;51.520;6.764;2023-12-20T16:02:47;7.90;99.90
26503;DHT22;14177;51.520;6.764;2023-12-20T16:05:14;7.90;99.90
26503;DHT22;14177;51.520;6.764;2023-12-20T16:07:42;7.90;99.90
26503;DHT22;14177;51.520;6.764;2023-12-20T16:10:10;7.90;99.90
26503;DHT22;14177;51.520;6.764;2023-12-20T16:12:37;7.90;99.90
26503;DHT22;14177;51.520;6.764;2023-12-20T16:15:06;7.90;99.90
26503;DHT22;14177;51.520;6.764;2023-12-20T16:17:34;7.80;99.90
26503;DHT22;14177;51.520;6.764;2023-12-20T16:20:03;7.90;99.90
26503;DHT22;14177;51.520;6.764;2023-12-20T16:22:30;7.90;99.90
26503;DHT22;14177;51.520;6.764;2023-12-20T16:24:57;7.90;99.90
26503;DHT22;14177;51.520;6.764;2023-12-20T16:27:24;7.90;99.90